Startpagina
METAR-TAF:

METAR-TAF

Vliegvelden :

Ouagadougou, Burkina Faso

Luchthaven Ouagadougou Internationaal

breedte: 12-21N, lengte: 001-31W, hoogte: 316 m

Actueel weer

Dit bericht is 57 minuten geleden gemaakt, om 11:00 UTC
Wind 6 kt uit het noordnoordwesten, variërend tussen het westen en het noordnoordoosten
Temperatuur 31°C
Vochtigheid 63%
Druk 1015 hPa
Zicht 10 km of meer
geen wolken onder 1500 m en geen cumulonimbus

METAR: DFFD 221100Z 33006KT 280V020 CAVOK 31/23 Q1015 NOSIG

Tijdstip: 11:57 (11:57 UTC)

Verwachting

Dit bericht is 57 minuten geleden gemaakt, om 11:00 UTC
Verwachting geldig van 22 om 12 UTC tot 23 om 18 UTC
Wind 8 kt uit het westnoordwesten
Zicht 10 km of meer
Weinig wolken op 2000 ft
Tijdelijke
van 22 om 16 UTC tot 22 om 24 UTC
Wind 25 kt uit het oosten met uitschieters tot 40 kt
Zicht: 3500 m
Gebroken wolken op 2000 ft
Verspreide wolken op 3300 ft, Cumulonimbus.
Squall-lijnen, onweer, regen

TAF: DFFD 221100Z 2212/2318 30008KT 9999 FEW020 TEMPO 2216/2224 08025G40KT 3500 SQ TSRA BKN020 SCT033CB

Waarnemingen en weersverwachtingen van meer dan 4000 vliegvelden (METAR en TAF).

De beschikbare stations zijn de gele en rode punten op de kaart.

Ga met uw muis naar het station om de naam te zien.

Klik dan om waarnemingen en weersverwachtingen te zien.

kaart wijzigen: klik op de groene knoppen met een zwart kruis om in te zoomen, op de groene knop met een streepje om uit te zoomen of op de groene pijlen voor aangrenzende kaarten.


METAR-TAF: